sensor_id;sensor_type;location;lat;lon;timestamp;pressure;altitude;pressure_sealevel;temperature;humidity
84190;BME280;74321;53.406;8.146;2024-03-23T00:54:55;100987.41;;;4.64;100.00
84190;BME280;74321;53.406;8.146;2024-03-23T00:59:56;100977.22;;;4.62;100.00
84190;BME280;74321;53.406;8.146;2024-03-23T01:04:56;100947.34;;;4.50;100.00
84190;BME280;74321;53.406;8.146;2024-03-23T01:10:03;100956.72;;;4.55;100.00
84190;BME280;74321;53.406;8.146;2024-03-23T01:15:06;100897.72;;;4.26;100.00
84190;BME280;74321;53.406;8.146;2024-03-23T01:20:07;100942.91;;;4.42;100.00
84190;BME280;74321;53.406;8.146;2024-03-23T01:25:08;100926.03;;;4.44;100.00
84190;BME280;74321;53.406;8.146;2024-03-23T01:30:10;100929.72;;;4.57;100.00
84190;BME280;74321;53.406;8.146;2024-03-23T01:35:11;100930.59;;;4.57;100.00
84190;BME280;74321;53.406;8.146;2024-03-23T01:40:12;100909.22;;;4.47;100.00
84190;BME280;74321;53.406;8.146;2024-03-23T01:45:15;100915.34;;;4.57;100.00
84190;BME280;74321;53.406;8.146;2024-03-23T01:50:17;100905.06;;;4.51;100.00
84190;BME280;74321;53.406;8.146;2024-03-23T01:55:19;100856.81;;;4.12;100.00
84190;BME280;74321;53.406;8.146;2024-03-23T02:00:20;100905.09;;;4.53;100.00
84190;BME280;74321;53.406;8.146;2024-03-23T02:05:21;100887.91;;;4.39;100.00
84190;BME280;74321;53.406;8.146;2024-03-23T02:10:22;100871.66;;;4.31;100.00
84190;BME280;74321;53.406;8.146;2024-03-23T02:15:24;100884.53;;;4.40;100.00
84190;BME280;74321;53.406;8.146;2024-03-23T02:20:27;100827.16;;;4.08;100.00
84190;BME280;74321;53.406;8.146;2024-03-23T02:25:31;100880.84;;;4.28;100.00
84190;BME280;74321;53.406;8.146;2024-03-23T02:30:33;100860.38;;;4.20;100.00
84190;BME280;74321;53.406;8.146;2024-03-23T02:35:34;100860.31;;;4.17;100.00
84190;BME280;74321;53.406;8.146;2024-03-23T02:40:35;100846.47;;;4.03;100.00
84190;BME280;74321;53.406;8.146;2024-03-23T02:45:38;100832.84;;;3.98;100.00
84190;BME280;74321;53.406;8.146;2024-03-23T02:50:39;100781.41;;;3.65;100.00
84190;BME280;74321;53.406;8.146;2024-03-23T02:55:40;100817.00;;;3.72;100.00
84190;BME280;74321;53.406;8.146;2024-03-23T03:00:40;100748.56;;;3.34;100.00
84190;BME280;74321;53.406;8.146;2024-03-23T03:05:41;100811.63;;;3.58;100.00
84190;BME280;74321;53.406;8.146;2024-03-23T03:10:42;100802.94;;;3.48;100.00
84190;BME280;74321;53.406;8.146;2024-03-23T03:15:43;100749.91;;;3.21;100.00
84190;BME280;74321;53.406;8.146;2024-03-23T03:20:44;100794.94;;;3.31;100.00
84190;BME280;74321;53.406;8.146;2024-03-23T03:25:45;100790.84;;;3.38;100.00
84190;BME280;74321;53.406;8.146;2024-03-23T03:30:46;100808.94;;;3.52;100.00
84190;BME280;74321;53.406;8.146;2024-03-23T03:35:47;100741.75;;;2.98;100.00
84190;BME280;74321;53.406;8.146;2024-03-23T03:40:48;100790.72;;;3.32;100.00
84190;BME280;74321;53.406;8.146;2024-03-23T03:45:52;100772.22;;;3.36;100.00
84190;BME280;74321;53.406;8.146;2024-03-23T03:50:56;100720.69;;;2.99;100.00
84190;BME280;74321;53.406;8.146;2024-03-23T03:56:01;100708.78;;;2.97;100.00
84190;BME280;74321;53.406;8.146;2024-03-23T04:01:02;100709.53;;;2.91;100.00
84190;BME280;74321;53.406;8.146;2024-03-23T04:06:03;100771.03;;;3.22;100.00
84190;BME280;74321;53.406;8.146;2024-03-23T04:11:04;100721.81;;;3.10;100.00
84190;BME280;74321;53.406;8.146;2024-03-23T04:16:06;100762.94;;;3.35;100.00
84190;BME280;74321;53.406;8.146;2024-03-23T04:21:06;100750.22;;;3.33;100.00
84190;BME280;74321;53.406;8.146;2024-03-23T04:26:07;100745.50;;;3.14;100.00
84190;BME280;74321;53.406;8.146;2024-03-23T04:31:09;100750.53;;;3.13;100.00
84190;BME280;74321;53.406;8.146;2024-03-23T04:36:10;100765.41;;;3.32;100.00
84190;BME280;74321;53.406;8.146;2024-03-23T04:41:13;100733.41;;;3.02;100.00
84190;BME280;74321;53.406;8.146;2024-03-23T04:46:13;100692.13;;;2.72;100.00
84190;BME280;74321;53.406;8.146;2024-03-23T04:51:24;100741.13;;;3.07;100.00
84190;BME280;74321;53.406;8.146;2024-03-23T04:56:27;100713.75;;;2.92;100.00
84190;BME280;74321;53.406;8.146;2024-03-23T05:01:28;100689.94;;;2.84;100.00
84190;BME280;74321;53.406;8.146;2024-03-23T05:06:29;100707.75;;;2.89;100.00
84190;BME280;74321;53.406;8.146;2024-03-23T05:11:30;100664.69;;;2.54;100.00
84190;BME280;74321;53.406;8.146;2024-03-23T05:16:31;100723.06;;;2.93;100.00
84190;BME280;74321;53.406;8.146;2024-03-23T05:21:32;100728.50;;;2.75;100.00
84190;BME280;74321;53.406;8.146;2024-03-23T05:26:33;100651.59;;;2.37;100.00
84190;BME280;74321;53.406;8.146;2024-03-23T05:31:49;100705.59;;;2.71;100.00
84190;BME280;74321;53.406;8.146;2024-03-23T05:36:51;100655.09;;;2.41;100.00
84190;BME280;74321;53.406;8.146;2024-03-23T05:41:51;100707.50;;;2.79;100.00
84190;BME280;74321;53.406;8.146;2024-03-23T05:46:55;100699.00;;;2.76;100.00
84190;BME280;74321;53.406;8.146;2024-03-23T05:51:56;100705.91;;;2.81;100.00
84190;BME280;74321;53.406;8.146;2024-03-23T05:56:57;100709.72;;;2.99;100.00
84190;BME280;74321;53.406;8.146;2024-03-23T06:01:58;100702.22;;;3.03;100.00
84190;BME280;74321;53.406;8.146;2024-03-23T06:06:59;100707.47;;;3.11;100.00
84190;BME280;74321;53.406;8.146;2024-03-23T06:12:02;100714.53;;;3.23;100.00
84190;BME280;74321;53.406;8.146;2024-03-23T06:17:03;100708.94;;;3.37;100.00
84190;BME280;74321;53.406;8.146;2024-03-23T06:22:04;100695.59;;;3.43;100.00
84190;BME280;74321;53.406;8.146;2024-03-23T06:27:07;100642.91;;;3.28;100.00
84190;BME280;74321;53.406;8.146;2024-03-23T06:32:08;100645.66;;;3.39;100.00
84190;BME280;74321;53.406;8.146;2024-03-23T06:37:08;100693.81;;;3.77;100.00
84190;BME280;74321;53.406;8.146;2024-03-23T06:42:10;100677.78;;;3.79;100.00
84190;BME280;74321;53.406;8.146;2024-03-23T06:47:11;100653.28;;;3.78;100.00
84190;BME280;74321;53.406;8.146;2024-03-23T06:52:12;100687.69;;;4.08;100.00
84190;BME280;74321;53.406;8.146;2024-03-23T06:57:13;100539.94;;;3.30;100.00
84190;BME280;74321;53.406;8.146;2024-03-23T07:02:17;100683.03;;;4.29;100.00
84190;BME280;74321;53.406;8.146;2024-03-23T07:07:18;100690.34;;;4.56;100.00
84190;BME280;74321;53.406;8.146;2024-03-23T07:12:19;100682.91;;;4.67;100.00
84190;BME280;74321;53.406;8.146;2024-03-23T07:17:21;100675.56;;;4.82;100.00
84190;BME280;74321;53.406;8.146;2024-03-23T07:22:22;100679.25;;;5.01;100.00
84190;BME280;74321;53.406;8.146;2024-03-23T07:27:24;100632.69;;;4.99;100.00
84190;BME280;74321;53.406;8.146;2024-03-23T07:32:25;100650.34;;;5.47;100.00
84190;BME280;74321;53.406;8.146;2024-03-23T07:37:33;100672.06;;;5.87;100.00
84190;BME280;74321;53.406;8.146;2024-03-23T07:42:37;100661.16;;;5.93;100.00
84190;BME280;74321;53.406;8.146;2024-03-23T07:47:37;100667.16;;;5.97;100.00
84190;BME280;74321;53.406;8.146;2024-03-23T07:52:38;100657.44;;;6.38;100.00
84190;BME280;74321;53.406;8.146;2024-03-23T07:57:39;100655.94;;;6.58;100.00
84190;BME280;74321;53.406;8.146;2024-03-23T08:02:40;100649.16;;;6.60;100.00
84190;BME280;74321;53.406;8.146;2024-03-23T08:07:41;100640.25;;;7.08;100.00
84190;BME280;74321;53.406;8.146;2024-03-23T08:12:42;100635.38;;;7.37;100.00
84190;BME280;74321;53.406;8.146;2024-03-23T08:17:43;100660.50;;;8.40;100.00
84190;BME280;74321;53.406;8.146;2024-03-23T08:22:43;100640.91;;;9.55;100.00
84190;BME280;74321;53.406;8.146;2024-03-23T08:27:45;100648.66;;;8.71;100.00
84190;BME280;74321;53.406;8.146;2024-03-23T08:32:45;100635.88;;;8.93;100.00
84190;BME280;74321;53.406;8.146;2024-03-23T08:37:46;100634.53;;;10.53;100.00
84190;BME280;74321;53.406;8.146;2024-03-23T08:42:49;100633.28;;;8.41;100.00
84190;BME280;74321;53.406;8.146;2024-03-23T08:47:50;100590.53;;;9.74;100.00
84190;BME280;74321;53.406;8.146;2024-03-23T08:52:51;100593.28;;;9.06;100.00
84190;BME280;74321;53.406;8.146;2024-03-23T08:57:52;100577.88;;;9.38;100.00
84190;BME280;74321;53.406;8.146;2024-03-23T09:02:53;100621.06;;;10.23;100.00
84190;BME280;74321;53.406;8.146;2024-03-23T09:07:54;100615.63;;;10.69;100.00
84190;BME280;74321;53.406;8.146;2024-03-23T09:12:57;100615.19;;;9.97;100.00
84190;BME280;74321;53.406;8.146;2024-03-23T09:18:01;100611.53;;;10.47;100.00
84190;BME280;74321;53.406;8.146;2024-03-23T09:23:03;100610.56;;;10.63;100.00
84190;BME280;74321;53.406;8.146;2024-03-23T09:28:07;100614.50;;;11.87;100.00
84190;BME280;74321;53.406;8.146;2024-03-23T09:33:11;100592.44;;;10.84;100.00
84190;BME280;74321;53.406;8.146;2024-03-23T09:38:13;100585.59;;;10.86;100.00
84190;BME280;74321;53.406;8.146;2024-03-23T09:43:14;100611.25;;;11.69;100.00
84190;BME280;74321;53.406;8.146;2024-03-23T09:48:15;100556.09;;;10.36;100.00
84190;BME280;74321;53.406;8.146;2024-03-23T09:53:16;100603.22;;;11.98;100.00
84190;BME280;74321;53.406;8.146;2024-03-23T09:58:18;100549.25;;;12.01;100.00
84190;BME280;74321;53.406;8.146;2024-03-23T10:03:19;100575.91;;;11.14;100.00
84190;BME280;74321;53.406;8.146;2024-03-23T10:08:19;100567.91;;;13.19;100.00
84190;BME280;74321;53.406;8.146;2024-03-23T10:13:25;100592.34;;;11.76;100.00
84190;BME280;74321;53.406;8.146;2024-03-23T10:18:26;100590.31;;;12.03;100.00
84190;BME280;74321;53.406;8.146;2024-03-23T10:23:29;100582.72;;;12.54;100.00
84190;BME280;74321;53.406;8.146;2024-03-23T10:28:32;100556.03;;;13.12;100.00
84190;BME280;74321;53.406;8.146;2024-03-23T10:33:33;100575.31;;;12.35;100.00
84190;BME280;74321;53.406;8.146;2024-03-23T10:38:35;100549.91;;;14.41;100.00
84190;BME280;74321;53.406;8.146;2024-03-23T10:43:37;100566.59;;;13.86;100.00
84190;BME280;74321;53.406;8.146;2024-03-23T10:48:39;100532.09;;;15.92;92.75
84190;BME280;74321;53.406;8.146;2024-03-23T10:53:40;100552.91;;;16.15;92.01
84190;BME280;74321;53.406;8.146;2024-03-23T10:58:45;100566.78;;;12.33;93.96
84190;BME280;74321;53.406;8.146;2024-03-23T11:03:52;100579.91;;;11.41;100.00
84190;BME280;74321;53.406;8.146;2024-03-23T11:08:55;100680.75;;;7.96;100.00
84190;BME280;74321;53.406;8.146;2024-03-23T11:13:57;100694.59;;;4.57;100.00
84190;BME280;74321;53.406;8.146;2024-03-23T11:19:36;100680.47;;;4.26;100.00
84190;BME280;74321;53.406;8.146;2024-03-23T11:24:40;100673.94;;;4.39;100.00
84190;BME280;74321;53.406;8.146;2024-03-23T11:29:40;100646.91;;;4.41;100.00
84190;BME280;74321;53.406;8.146;2024-03-23T11:34:42;100630.03;;;4.93;100.00
84190;BME280;74321;53.406;8.146;2024-03-23T11:39:43;100628.00;;;5.26;100.00
84190;BME280;74321;53.406;8.146;2024-03-23T11:44:46;100635.75;;;5.32;100.00
84190;BME280;74321;53.406;8.146;2024-03-23T11:49:48;100628.34;;;5.49;100.00
84190;BME280;74321;53.406;8.146;2024-03-23T11:54:49;100587.00;;;5.62;100.00
84190;BME280;74321;53.406;8.146;2024-03-23T11:59:50;100606.31;;;7.14;100.00
84190;BME280;74321;53.406;8.146;2024-03-23T12:04:51;100610.88;;;10.03;100.00
84190;BME280;74321;53.406;8.146;2024-03-23T12:10:05;100583.66;;;11.08;100.00
84190;BME280;74321;53.406;8.146;2024-03-23T12:15:09;100608.03;;;12.21;100.00
84190;BME280;74321;53.406;8.146;2024-03-23T12:20:10;100595.78;;;9.39;100.00
84190;BME280;74321;53.406;8.146;2024-03-23T12:25:14;100599.00;;;7.73;100.00
84190;BME280;74321;53.406;8.146;2024-03-23T12:30:14;100617.38;;;7.19;100.00
84190;BME280;74321;53.406;8.146;2024-03-23T12:35:15;100616.91;;;6.55;100.00
84190;BME280;74321;53.406;8.146;2024-03-23T12:40:16;100608.25;;;6.40;100.00
84190;BME280;74321;53.406;8.146;2024-03-23T12:45:16;100590.03;;;6.02;100.00
84190;BME280;74321;53.406;8.146;2024-03-23T12:50:17;100596.63;;;8.33;100.00
84190;BME280;74321;53.406;8.146;2024-03-23T12:55:18;100590.03;;;11.55;100.00
84190;BME280;74321;53.406;8.146;2024-03-23T13:00:19;100584.63;;;11.75;100.00
84190;BME280;74321;53.406;8.146;2024-03-23T13:05:20;100572.63;;;12.43;100.00
84190;BME280;74321;53.406;8.146;2024-03-23T13:10:21;100578.38;;;10.16;100.00
84190;BME280;74321;53.406;8.146;2024-03-23T13:15:22;100567.72;;;9.07;100.00
84190;BME280;74321;53.406;8.146;2024-03-23T13:20:23;100525.72;;;9.72;100.00
84190;BME280;74321;53.406;8.146;2024-03-23T13:25:23;100589.91;;;8.62;100.00
84190;BME280;74321;53.406;8.146;2024-03-23T13:30:24;100596.00;;;6.95;100.00
84190;BME280;74321;53.406;8.146;2024-03-23T13:35:25;100595.66;;;7.86;100.00
84190;BME280;74321;53.406;8.146;2024-03-23T13:40:26;100594.16;;;10.82;100.00
84190;BME280;74321;53.406;8.146;2024-03-23T13:45:27;100557.50;;;8.43;100.00
84190;BME280;74321;53.406;8.146;2024-03-23T13:50:31;100590.59;;;6.59;100.00
84190;BME280;74321;53.406;8.146;2024-03-23T13:55:31;100602.22;;;6.29;100.00
84190;BME280;74321;53.406;8.146;2024-03-23T14:00:32;100629.94;;;5.41;100.00
84190;BME280;74321;53.406;8.146;2024-03-23T14:05:33;100608.00;;;3.95;100.00
84190;BME280;74321;53.406;8.146;2024-03-23T14:10:34;100588.06;;;3.70;100.00
84190;BME280;74321;53.406;8.146;2024-03-23T14:15:38;100626.50;;;4.35;100.00
84190;BME280;74321;53.406;8.146;2024-03-23T14:20:39;100533.09;;;4.62;100.00
84190;BME280;74321;53.406;8.146;2024-03-23T14:25:40;100618.75;;;5.90;100.00
84190;BME280;74321;53.406;8.146;2024-03-23T14:30:41;100609.44;;;5.94;100.00
84190;BME280;74321;53.406;8.146;2024-03-23T14:35:42;100606.97;;;5.36;100.00
84190;BME280;74321;53.406;8.146;2024-03-23T14:40:43;100605.69;;;5.66;100.00
84190;BME280;74321;53.406;8.146;2024-03-23T14:51:06;100604.88;;;7.57;100.00
84190;BME280;74321;53.406;8.146;2024-03-23T14:56:09;100575.34;;;9.18;100.00
84190;BME280;74321;53.406;8.146;2024-03-23T15:01:18;100531.09;;;8.24;100.00
84190;BME280;74321;53.406;8.146;2024-03-23T15:06:19;100572.75;;;8.06;100.00
84190;BME280;74321;53.406;8.146;2024-03-23T15:11:27;100582.81;;;7.67;100.00
84190;BME280;74321;53.406;8.146;2024-03-23T15:16:28;100556.28;;;7.23;100.00
84190;BME280;74321;53.406;8.146;2024-03-23T15:21:29;100564.66;;;7.04;100.00
84190;BME280;74321;53.406;8.146;2024-03-23T15:26:32;100552.03;;;6.13;100.00
84190;BME280;74321;53.406;8.146;2024-03-23T15:31:33;100569.38;;;6.57;100.00
84190;BME280;74321;53.406;8.146;2024-03-23T15:36:34;100555.88;;;6.62;100.00
84190;BME280;74321;53.406;8.146;2024-03-23T15:41:35;100579.59;;;6.61;100.00
84190;BME280;74321;53.406;8.146;2024-03-23T15:46:37;100521.41;;;6.05;100.00
84190;BME280;74321;53.406;8.146;2024-03-23T15:51:38;100571.81;;;6.44;100.00
84190;BME280;74321;53.406;8.146;2024-03-23T15:56:46;100554.91;;;6.53;100.00
84190;BME280;74321;53.406;8.146;2024-03-23T16:01:48;100541.25;;;6.41;100.00
84190;BME280;74321;53.406;8.146;2024-03-23T16:06:48;100540.22;;;6.21;100.00
84190;BME280;74321;53.406;8.146;2024-03-23T16:11:53;100541.88;;;6.20;100.00
84190;BME280;74321;53.406;8.146;2024-03-23T16:16:54;100536.00;;;6.22;100.00
84190;BME280;74321;53.406;8.146;2024-03-23T16:21:55;100522.47;;;6.29;100.00
84190;BME280;74321;53.406;8.146;2024-03-23T16:26:56;100474.88;;;6.15;100.00
84190;BME280;74321;53.406;8.146;2024-03-23T16:31:57;100502.00;;;6.15;100.00
84190;BME280;74321;53.406;8.146;2024-03-23T16:37:00;100514.88;;;6.32;100.00
84190;BME280;74321;53.406;8.146;2024-03-23T16:42:01;100518.97;;;6.14;100.00
84190;BME280;74321;53.406;8.146;2024-03-23T16:47:02;100489.84;;;5.88;100.00
84190;BME280;74321;53.406;8.146;2024-03-23T16:52:03;100515.25;;;5.86;100.00
84190;BME280;74321;53.406;8.146;2024-03-23T16:57:07;100501.69;;;5.86;100.00
84190;BME280;74321;53.406;8.146;2024-03-23T17:02:11;100489.47;;;5.53;100.00
84190;BME280;74321;53.406;8.146;2024-03-23T17:07:11;100492.84;;;5.53;100.00
84190;BME280;74321;53.406;8.146;2024-03-23T17:12:12;100507.22;;;5.48;100.00
84190;BME280;74321;53.406;8.146;2024-03-23T17:17:13;100490.63;;;5.10;100.00
84190;BME280;74321;53.406;8.146;2024-03-23T17:22:17;100515.38;;;5.24;100.00
84190;BME280;74321;53.406;8.146;2024-03-23T17:27:18;100507.34;;;4.94;100.00
84190;BME280;74321;53.406;8.146;2024-03-23T17:32:18;100495.63;;;5.03;100.00
84190;BME280;74321;53.406;8.146;2024-03-23T17:37:19;100506.59;;;5.01;100.00
84190;BME280;74321;53.406;8.146;2024-03-23T17:42:20;100519.41;;;5.08;100.00
84190;BME280;74321;53.406;8.146;2024-03-23T17:47:20;100514.44;;;5.18;100.00
84190;BME280;74321;53.406;8.146;2024-03-23T17:52:21;100523.84;;;5.25;100.00
84190;BME280;74321;53.406;8.146;2024-03-23T17:57:23;100520.16;;;5.03;100.00
84190;BME280;74321;53.406;8.146;2024-03-23T18:02:24;100456.44;;;4.27;100.00
84190;BME280;74321;53.406;8.146;2024-03-23T18:07:24;100523.38;;;4.90;100.00
84190;BME280;74321;53.406;8.146;2024-03-23T18:12:31;100467.03;;;4.56;100.00
84190;BME280;74321;53.406;8.146;2024-03-23T18:17:33;100518.91;;;4.75;100.00
84190;BME280;74321;53.406;8.146;2024-03-23T18:22:33;100370.03;;;3.63;100.00
84190;BME280;74321;53.406;8.146;2024-03-23T18:27:34;100502.47;;;4.50;100.00
84190;BME280;74321;53.406;8.146;2024-03-23T18:32:35;100511.66;;;4.43;100.00
84190;BME280;74321;53.406;8.146;2024-03-23T18:37:36;100526.53;;;4.22;100.00
84190;BME280;74321;53.406;8.146;2024-03-23T18:42:37;100492.66;;;4.20;100.00
84190;BME280;74321;53.406;8.146;2024-03-23T18:47:39;100479.13;;;4.18;100.00
84190;BME280;74321;53.406;8.146;2024-03-23T18:52:40;100467.97;;;4.08;100.00
84190;BME280;74321;53.406;8.146;2024-03-23T18:57:41;100505.16;;;4.09;100.00
84190;BME280;74321;53.406;8.146;2024-03-23T19:02:41;100498.44;;;4.11;100.00
84190;BME280;74321;53.406;8.146;2024-03-23T19:07:44;100494.94;;;4.05;100.00
84190;BME280;74321;53.406;8.146;2024-03-23T19:12:45;100505.56;;;3.84;100.00
84190;BME280;74321;53.406;8.146;2024-03-23T19:17:46;100501.22;;;3.78;100.00
84190;BME280;74321;53.406;8.146;2024-03-23T19:22:47;100498.09;;;3.91;100.00
84190;BME280;74321;53.406;8.146;2024-03-23T19:27:48;100499.56;;;3.80;100.00
84190;BME280;74321;53.406;8.146;2024-03-23T19:32:48;100473.31;;;3.75;100.00
84190;BME280;74321;53.406;8.146;2024-03-23T19:37:49;100473.91;;;3.63;100.00
84190;BME280;74321;53.406;8.146;2024-03-23T19:42:50;100475.69;;;3.67;100.00
84190;BME280;74321;53.406;8.146;2024-03-23T19:47:51;100485.03;;;3.72;100.00
84190;BME280;74321;53.406;8.146;2024-03-23T19:52:55;100483.47;;;3.77;100.00
84190;BME280;74321;53.406;8.146;2024-03-23T19:57:55;100410.81;;;3.30;100.00
84190;BME280;74321;53.406;8.146;2024-03-23T20:02:59;100432.81;;;3.31;100.00
84190;BME280;74321;53.406;8.146;2024-03-23T20:08:05;100471.03;;;3.45;100.00
84190;BME280;74321;53.406;8.146;2024-03-23T20:13:12;100464.13;;;3.36;100.00
84190;BME280;74321;53.406;8.146;2024-03-23T20:18:12;100470.13;;;3.40;100.00
84190;BME280;74321;53.406;8.146;2024-03-23T20:23:13;100456.16;;;3.18;100.00
84190;BME280;74321;53.406;8.146;2024-03-23T20:28:14;100387.44;;;2.98;100.00
84190;BME280;74321;53.406;8.146;2024-03-23T20:33:15;100400.81;;;2.93;100.00
84190;BME280;74321;53.406;8.146;2024-03-23T20:38:16;100451.78;;;3.11;100.00
84190;BME280;74321;53.406;8.146;2024-03-23T20:43:19;100438.31;;;3.12;100.00
84190;BME280;74321;53.406;8.146;2024-03-23T20:48:22;100451.72;;;3.06;100.00
84190;BME280;74321;53.406;8.146;2024-03-23T20:53:24;100439.75;;;2.99;100.00
84190;BME280;74321;53.406;8.146;2024-03-23T20:58:26;100440.84;;;3.14;100.00
84190;BME280;74321;53.406;8.146;2024-03-23T21:03:28;100434.75;;;3.02;100.00
84190;BME280;74321;53.406;8.146;2024-03-23T21:08:29;100420.69;;;2.76;100.00
84190;BME280;74321;53.406;8.146;2024-03-23T21:13:32;100423.81;;;3.05;100.00
84190;BME280;74321;53.406;8.146;2024-03-23T21:18:33;100416.91;;;2.98;100.00
84190;BME280;74321;53.406;8.146;2024-03-23T21:23:36;100427.94;;;3.00;100.00
84190;BME280;74321;53.406;8.146;2024-03-23T21:28:37;100392.06;;;2.78;100.00
84190;BME280;74321;53.406;8.146;2024-03-23T21:33:40;100416.00;;;2.93;100.00
84190;BME280;74321;53.406;8.146;2024-03-23T21:38:41;100412.59;;;2.92;100.00
84190;BME280;74321;53.406;8.146;2024-03-23T21:43:45;100409.09;;;2.86;100.00
84190;BME280;74321;53.406;8.146;2024-03-23T21:48:48;100400.59;;;2.82;100.00
84190;BME280;74321;53.406;8.146;2024-03-23T21:53:49;100374.50;;;2.85;100.00
84190;BME280;74321;53.406;8.146;2024-03-23T21:58:50;100370.47;;;2.94;100.00
84190;BME280;74321;53.406;8.146;2024-03-23T22:03:52;100357.06;;;2.98;100.00
84190;BME280;74321;53.406;8.146;2024-03-23T22:08:55;100332.97;;;2.75;100.00
84190;BME280;74321;53.406;8.146;2024-03-23T22:13:56;100356.25;;;3.01;100.00
84190;BME280;74321;53.406;8.146;2024-03-23T22:18:57;100348.91;;;2.71;100.00
84190;BME280;74321;53.406;8.146;2024-03-23T22:23:58;100353.31;;;2.81;100.00
84190;BME280;74321;53.406;8.146;2024-03-23T22:28:59;100327.16;;;2.80;100.00
84190;BME280;74321;53.406;8.146;2024-03-23T22:34:00;100335.84;;;2.92;100.00
84190;BME280;74321;53.406;8.146;2024-03-23T22:39:01;100325.59;;;2.86;100.00
84190;BME280;74321;53.406;8.146;2024-03-23T22:44:02;100312.97;;;2.89;100.00
84190;BME280;74321;53.406;8.146;2024-03-23T22:49:03;100313.22;;;3.01;100.00
84190;BME280;74321;53.406;8.146;2024-03-23T22:54:05;100302.13;;;2.94;100.00
84190;BME280;74321;53.406;8.146;2024-03-23T22:59:06;100252.56;;;2.59;100.00
84190;BME280;74321;53.406;8.146;2024-03-23T23:04:06;100301.72;;;2.73;100.00
84190;BME280;74321;53.406;8.146;2024-03-23T23:09:08;100283.41;;;2.85;100.00
84190;BME280;74321;53.406;8.146;2024-03-23T23:14:08;100250.38;;;2.78;100.00
84190;BME280;74321;53.406;8.146;2024-03-23T23:19:10;100268.94;;;2.79;100.00
84190;BME280;74321;53.406;8.146;2024-03-23T23:24:12;100259.59;;;2.75;100.00
84190;BME280;74321;53.406;8.146;2024-03-23T23:29:13;100212.13;;;2.60;100.00
84190;BME280;74321;53.406;8.146;2024-03-23T23:34:13;100198.78;;;2.69;100.00
84190;BME280;74321;53.406;8.146;2024-03-23T23:39:14;100244.38;;;3.20;100.00
84190;BME280;74321;53.406;8.146;2024-03-23T23:44:15;100217.41;;;3.22;100.00
84190;BME280;74321;53.406;8.146;2024-03-23T23:49:16;100180.69;;;2.97;100.00
84190;BME280;74321;53.406;8.146;2024-03-23T23:54:16;100198.75;;;3.17;100.00
84190;BME280;74321;53.406;8.146;2024-03-23T23:59:18;100225.34;;;3.44;100.00
